Time;durP1;ratioP1;P1;durP2;ratioP2;P2;SDS_P1;SDS_P2;PMS_P1;PMS_P2;Temp;Humidity;BMP_temperature;BMP_pressure;BME280_temperature;BME280_humidity;BME280_pressure;Samples;Min_cycle;Max_cycle;Signal;HPM_P1;HPM_P2
2022/06/22 00:01:37;;;;;;;8.77;7.93;;;;;;;;;;4942978;28;21370;-53
2022/06/22 00:04:05;;;;;;;9.37;8.40;;;;;;;;;;4943405;28;20439;-53
2022/06/22 00:06:38;;;;;;;9.47;8.40;;;;;;;;;;4944844;28;20456;-53
2022/06/22 00:09:29;;;;;;;9.00;8.20;;;;;;;;;;4932383;28;20454;-53
2022/06/22 00:11:56;;;;;;;10.30;9.40;;;;;;;;;;4943125;28;20446;-54
2022/06/22 00:14:26;;;;;;;11.60;8.50;;;;;;;;;;4915262;28;20458;-57
2022/06/22 00:16:53;;;;;;;8.60;7.80;;;;;;;;;;4943735;28;20554;-55
2022/06/22 00:19:27;;;;;;;11.30;10.10;;;;;;;;;;4939558;28;20431;-54
2022/06/22 00:21:53;;;;;;;8.83;8.10;;;;;;;;;;4938972;28;20950;-54
2022/06/22 00:24:30;;;;;;;8.97;8.07;;;;;;;;;;4942194;28;20441;-54
2022/06/22 00:27:14;;;;;;;8.77;8.00;;;;;;;;;;4943490;28;20467;-53
2022/06/22 00:29:40;;;;;;;9.03;7.50;;;;;;;;;;4901455;28;20530;-54
2022/06/22 00:32:25;;;;;;;9.60;8.73;;;;;;;;;;4935989;28;20449;-54
2022/06/22 00:35:17;;;;;;;9.13;8.20;;;;;;;;;;4943356;28;20812;-55
2022/06/22 00:37:43;;;;;;;8.63;7.73;;;;;;;;;;4944613;28;20456;-54
2022/06/22 00:40:14;;;;;;;9.90;8.90;;;;;;;;;;4924244;28;20451;-54
2022/06/22 00:42:44;;;;;;;9.77;8.87;;;;;;;;;;4948658;28;20467;-59
2022/06/22 00:45:12;;;;;;;10.43;9.03;;;;;;;;;;4924046;28;20455;-54
2022/06/22 00:47:46;;;;;;;9.37;8.50;;;;;;;;;;4944059;28;20482;-56
2022/06/22 00:50:19;;;;;;;8.83;7.93;;;;;;;;;;4936067;28;20446;-54
2022/06/22 00:52:47;;;;;;;8.83;8.10;;;;;;;;;;4941259;28;20451;-55
2022/06/22 00:55:31;;;;;;;8.80;8.00;;;;;;;;;;4923298;28;20482;-54
2022/06/22 00:58:20;;;;;;;11.00;8.60;;;;;;;;;;4937199;28;20941;-53
2022/06/22 01:01:28;;;;;;;9.57;8.57;;;;;;;;;;4947385;28;20501;-54
2022/06/22 01:04:35;;;;;;;9.63;8.73;;;;;;;;;;4915324;28;20517;-53
2022/06/22 01:07:16;;;;;;;8.87;8.07;;;;;;;;;;4934796;28;20532;-56
2022/06/22 01:09:49;;;;;;;9.50;8.20;;;;;;;;;;4925721;28;20505;-54
2022/06/22 01:12:18;;;;;;;8.87;8.00;;;;;;;;;;4940467;28;20501;-54
2022/06/22 01:14:56;;;;;;;9.80;8.90;;;;;;;;;;4937001;28;20510;-53
2022/06/22 01:17:29;;;;;;;9.90;8.93;;;;;;;;;;4941716;28;20442;-54
2022/06/22 01:20:18;;;;;;;9.70;8.80;;;;;;;;;;4916494;28;20446;-53
2022/06/22 01:22:47;;;;;;;9.13;8.33;;;;;;;;;;4953596;28;20440;-53
2022/06/22 01:25:13;;;;;;;9.10;8.20;;;;;;;;;;4937417;28;20959;-54
2022/06/22 01:27:43;;;;;;;9.60;8.07;;;;;;;;;;4943591;28;20435;-54
2022/06/22 01:30:22;;;;;;;8.97;8.07;;;;;;;;;;4938515;28;20569;-55
2022/06/22 01:32:55;;;;;;;9.87;9.03;;;;;;;;;;4943930;28;20451;-54
2022/06/22 01:35:23;;;;;;;13.33;9.70;;;;;;;;;;4919269;28;20517;-53
2022/06/22 01:38:19;;;;;;;8.90;8.10;;;;;;;;;;4961853;28;20786;-54
2022/06/22 01:40:58;;;;;;;9.07;8.33;;;;;;;;;;4936913;28;20456;-53
2022/06/22 01:43:29;;;;;;;8.47;7.67;;;;;;;;;;4940121;28;20443;-53
2022/06/22 01:45:55;;;;;;;9.43;8.57;;;;;;;;;;4946080;28;20431;-53
2022/06/22 01:48:26;;;;;;;9.60;8.73;;;;;;;;;;4943936;28;20515;-53
2022/06/22 01:50:52;;;;;;;8.57;7.77;;;;;;;;;;4931068;28;21730;-54
2022/06/22 01:53:58;;;;;;;9.67;8.77;;;;;;;;;;4947471;28;20442;-54
2022/06/22 01:56:39;;;;;;;11.10;7.90;;;;;;;;;;4917220;28;20611;-55
2022/06/22 01:59:18;;;;;;;9.10;8.20;;;;;;;;;;4928792;29;20773;-53
2022/06/22 02:01:46;;;;;;;9.23;8.10;;;;;;;;;;4924222;28;20450;-54
2022/06/22 02:10:23;;;;;;;9.43;8.53;;;;;;;;;;4918473;28;21654;-53
2022/06/22 02:13:12;;;;;;;10.50;7.60;;;;;;;;;;4959261;28;20959;-57
2022/06/22 02:15:40;;;;;;;9.53;8.17;;;;;;;;;;4942489;28;20483;-58
2022/06/22 02:18:11;;;;;;;8.67;7.97;;;;;;;;;;4946439;28;20449;-53
2022/06/22 02:20:38;;;;;;;9.23;8.33;;;;;;;;;;4916253;28;20451;-52
2022/06/22 02:23:13;;;;;;;8.70;7.90;;;;;;;;;;4946565;28;20446;-53
2022/06/22 02:25:57;;;;;;;9.60;8.70;;;;;;;;;;4932184;28;20549;-54
2022/06/22 02:28:23;;;;;;;9.87;8.97;;;;;;;;;;4945068;28;20439;-54
2022/06/22 02:30:49;;;;;;;9.50;8.50;;;;;;;;;;4923642;28;20890;-53
2022/06/22 02:33:15;;;;;;;10.37;9.47;;;;;;;;;;4946429;28;20461;-53
2022/06/22 02:35:41;;;;;;;10.87;8.90;;;;;;;;;;4937829;28;20218;-53
2022/06/22 02:38:15;;;;;;;10.00;8.33;;;;;;;;;;4945060;28;20793;-53
2022/06/22 02:46:27;;;;;;;9.80;8.83;;;;;;;;;;4940639;28;20573;-54
2022/06/22 02:48:58;;;;;;;9.87;8.87;;;;;;;;;;4941536;28;20810;-53
2022/06/22 02:51:27;;;;;;;9.40;8.70;;;;;;;;;;4923125;28;20447;-53
2022/06/22 02:53:53;;;;;;;10.57;9.43;;;;;;;;;;4948861;28;20443;-54
2022/06/22 02:56:25;;;;;;;10.83;9.67;;;;;;;;;;4930373;28;20482;-53
2022/06/22 02:59:30;;;;;;;14.13;8.57;;;;;;;;;;4953117;28;20442;-53
2022/06/22 03:01:56;;;;;;;10.97;9.93;;;;;;;;;;4928670;28;20489;-54
2022/06/22 03:04:24;;;;;;;11.97;9.37;;;;;;;;;;4945136;28;20842;-54
2022/06/22 03:06:50;;;;;;;11.10;10.00;;;;;;;;;;4940591;28;20522;-53
2022/06/22 03:09:16;;;;;;;10.30;9.30;;;;;;;;;;4938478;28;20210;-54
2022/06/22 03:11:43;;;;;;;15.60;10.13;;;;;;;;;;4948154;28;20455;-54
2022/06/22 03:14:20;;;;;;;9.63;8.83;;;;;;;;;;4897560;28;20458;-57
2022/06/22 03:16:48;;;;;;;10.37;9.47;;;;;;;;;;4945805;28;20494;-54
2022/06/22 03:19:16;;;;;;;10.50;9.70;;;;;;;;;;4923031;28;20513;-54
2022/06/22 03:21:42;;;;;;;9.80;8.80;;;;;;;;;;4941952;28;21069;-53
2022/06/22 03:24:14;;;;;;;9.43;8.63;;;;;;;;;;4921297;28;20451;-54
2022/06/22 03:26:43;;;;;;;10.70;9.80;;;;;;;;;;4940222;28;20445;-53
2022/06/22 03:29:11;;;;;;;11.00;10.07;;;;;;;;;;4918509;28;20449;-54
2022/06/22 03:31:55;;;;;;;12.17;10.93;;;;;;;;;;4939546;28;20730;-54
2022/06/22 03:34:28;;;;;;;9.77;8.87;;;;;;;;;;4936418;28;20453;-54
2022/06/22 03:37:00;;;;;;;11.20;10.10;;;;;;;;;;4947972;28;20482;-53
2022/06/22 03:39:28;;;;;;;11.63;10.53;;;;;;;;;;4919136;28;20462;-55
2022/06/22 03:42:28;;;;;;;10.30;9.13;;;;;;;;;;4935067;28;20471;-54
2022/06/22 03:44:55;;;;;;;10.67;9.57;;;;;;;;;;4889068;28;20447;-53
2022/06/22 03:47:31;;;;;;;12.50;10.17;;;;;;;;;;4909023;28;20450;-54
2022/06/22 03:50:01;;;;;;;10.33;8.83;;;;;;;;;;4943185;28;20931;-55
2022/06/22 03:52:31;;;;;;;10.07;9.17;;;;;;;;;;4939096;28;20494;-60
2022/06/22 03:54:58;;;;;;;10.60;9.50;;;;;;;;;;4938060;28;21290;-54
2022/06/22 03:57:30;;;;;;;9.77;8.77;;;;;;;;;;4920429;28;20458;-54
2022/06/22 03:59:56;;;;;;;10.43;8.57;;;;;;;;;;4946109;28;20482;-54
2022/06/22 04:02:23;;;;;;;9.27;8.40;;;;;;;;;;4917560;28;21171;-55
2022/06/22 04:04:51;;;;;;;11.43;9.93;;;;;;;;;;4944560;28;20435;-54
2022/06/22 04:07:17;;;;;;;9.97;8.83;;;;;;;;;;4918138;28;20948;-54
2022/06/22 04:09:46;;;;;;;8.90;8.10;;;;;;;;;;4942526;28;20446;-56
2022/06/22 04:12:17;;;;;;;8.50;7.70;;;;;;;;;;4936231;28;20439;-53
2022/06/22 04:14:47;;;;;;;9.97;9.07;;;;;;;;;;4942421;28;20439;-54
2022/06/22 04:17:17;;;;;;;10.27;9.27;;;;;;;;;;4904466;28;22873;-53
2022/06/22 04:19:48;;;;;;;10.30;9.30;;;;;;;;;;4931368;28;20513;-54
2022/06/22 04:22:21;;;;;;;10.53;9.43;;;;;;;;;;4945836;28;20545;-53
2022/06/22 04:24:54;;;;;;;9.60;8.70;;;;;;;;;;4943281;28;20434;-54
2022/06/22 04:27:28;;;;;;;9.87;8.97;;;;;;;;;;4938762;28;20433;-54
2022/06/22 04:29:58;;;;;;;13.20;8.80;;;;;;;;;;4935571;28;20509;-54
2022/06/22 04:32:26;;;;;;;11.80;8.93;;;;;;;;;;4908464;28;20808;-59
2022/06/22 04:35:25;;;;;;;9.13;8.30;;;;;;;;;;4938172;28;20447;-54
2022/06/22 04:37:53;;;;;;;10.23;9.33;;;;;;;;;;4901285;28;20561;-54
2022/06/22 04:40:38;;;;;;;10.87;9.87;;;;;;;;;;4940317;28;20855;-56
2022/06/22 04:43:06;;;;;;;11.67;9.40;;;;;;;;;;4918317;28;20438;-55
2022/06/22 04:45:37;;;;;;;10.77;9.67;;;;;;;;;;4930591;28;20435;-55
2022/06/22 04:48:26;;;;;;;10.40;9.43;;;;;;;;;;4921753;28;21215;-54
2022/06/22 04:51:00;;;;;;;9.90;7.90;;;;;;;;;;4927952;28;20529;-55
2022/06/22 04:53:33;;;;;;;11.20;9.00;;;;;;;;;;4931269;28;20462;-55
2022/06/22 04:56:00;;;;;;;12.93;9.57;;;;;;;;;;4920970;28;20480;-54
2022/06/22 04:58:36;;;;;;;10.10;9.20;;;;;;;;;;4937506;28;20439;-51
2022/06/22 05:01:11;;;;;;;11.67;8.10;;;;;;;;;;4916176;28;20446;-54
2022/06/22 05:03:37;;;;;;;10.20;8.93;;;;;;;;;;4935083;28;20816;-55
2022/06/22 05:06:07;;;;;;;8.83;8.13;;;;;;;;;;4911450;28;20505;-53
2022/06/22 05:08:35;;;;;;;9.23;7.77;;;;;;;;;;4934730;28;20238;-54
2022/06/22 05:11:03;;;;;;;11.60;9.03;;;;;;;;;;4895797;28;20597;-53
2022/06/22 05:13:29;;;;;;;10.07;9.17;;;;;;;;;;4919722;28;20467;-55
2022/06/22 05:15:55;;;;;;;11.40;9.47;;;;;;;;;;4914020;28;20478;-54
2022/06/22 05:18:23;;;;;;;9.70;8.70;;;;;;;;;;4922208;28;20431;-52
2022/06/22 05:21:11;;;;;;;8.70;7.90;;;;;;;;;;4918396;28;20554;-54
2022/06/22 05:23:37;;;;;;;9.53;8.63;;;;;;;;;;4937343;28;20452;-54
2022/06/22 05:26:07;;;;;;;9.67;8.77;;;;;;;;;;4925078;29;20439;-55
2022/06/22 05:28:42;;;;;;;9.57;8.70;;;;;;;;;;4928169;28;20189;-52
2022/06/22 05:31:21;;;;;;;10.10;9.20;;;;;;;;;;4925475;28;20960;-54
2022/06/22 05:33:51;;;;;;;11.43;9.00;;;;;;;;;;4944225;28;21007;-54
2022/06/22 05:36:20;;;;;;;11.40;8.20;;;;;;;;;;4914577;28;21019;-56
2022/06/22 05:38:51;;;;;;;10.57;9.50;;;;;;;;;;4963667;28;20435;-53
2022/06/22 05:41:21;;;;;;;9.80;9.00;;;;;;;;;;4891654;28;20450;-53
2022/06/22 05:43:47;;;;;;;9.63;8.67;;;;;;;;;;4942072;28;20458;-53
2022/06/22 05:46:13;;;;;;;9.43;8.20;;;;;;;;;;4940358;28;20519;-54
2022/06/22 05:48:43;;;;;;;14.30;8.27;;;;;;;;;;4944650;28;20518;-54
2022/06/22 05:51:28;;;;;;;8.33;7.63;;;;;;;;;;4952789;28;20446;-53
2022/06/22 05:53:59;;;;;;;11.97;8.60;;;;;;;;;;4940103;28;20583;-54
2022/06/22 05:56:28;;;;;;;8.80;7.90;;;;;;;;;;4899702;28;20482;-53
2022/06/22 05:58:54;;;;;;;9.57;8.57;;;;;;;;;;4941277;28;20490;-53
2022/06/22 06:01:39;;;;;;;9.00;7.40;;;;;;;;;;4918344;28;20498;-54
2022/06/22 06:04:20;;;;;;;10.20;8.67;;;;;;;;;;4941741;28;20454;-55
2022/06/22 06:06:56;;;;;;;14.67;9.07;;;;;;;;;;4943422;28;20562;-54
2022/06/22 06:09:23;;;;;;;8.47;7.77;;;;;;;;;;4946325;28;20491;-53
2022/06/22 06:11:50;;;;;;;8.60;7.80;;;;;;;;;;4920551;28;20435;-55
2022/06/22 06:14:34;;;;;;;8.77;7.90;;;;;;;;;;4948310;28;20461;-54
2022/06/22 06:17:03;;;;;;;8.80;8.00;;;;;;;;;;4938169;28;20605;-54
2022/06/22 06:19:30;;;;;;;8.77;7.90;;;;;;;;;;4941525;28;20975;-56
2022/06/22 06:21:58;;;;;;;10.30;7.50;;;;;;;;;;4917548;28;20459;-54
2022/06/22 06:24:25;;;;;;;10.73;8.70;;;;;;;;;;4945697;28;20454;-59
2022/06/22 06:29:45;;;;;;;10.50;9.20;;;;;;;;;;4946728;28;21045;-55
2022/06/22 06:32:13;;;;;;;15.40;8.50;;;;;;;;;;4903771;28;20922;-54
2022/06/22 06:34:43;;;;;;;9.40;8.50;;;;;;;;;;4941563;28;20457;-54
2022/06/22 06:37:09;;;;;;;9.67;8.73;;;;;;;;;;4924424;28;20447;-54
2022/06/22 06:39:37;;;;;;;9.23;8.10;;;;;;;;;;4946358;28;20448;-55
2022/06/22 06:42:05;;;;;;;14.93;9.47;;;;;;;;;;4918127;28;20817;-53
2022/06/22 06:44:41;;;;;;;13.97;9.53;;;;;;;;;;4942908;28;20646;-54
2022/06/22 06:47:13;;;;;;;10.30;9.23;;;;;;;;;;4938017;28;20463;-54
2022/06/22 06:49:41;;;;;;;8.43;7.67;;;;;;;;;;4946218;28;20522;-54
2022/06/22 06:52:16;;;;;;;8.77;7.87;;;;;;;;;;4923488;28;20442;-60
2022/06/22 06:55:06;;;;;;;10.93;9.57;;;;;;;;;;4946316;28;20443;-55
2022/06/22 06:57:32;;;;;;;9.17;8.37;;;;;;;;;;4923287;28;20462;-54
2022/06/22 07:00:04;;;;;;;9.97;8.97;;;;;;;;;;4940970;28;20435;-54
2022/06/22 07:02:40;;;;;;;10.70;9.77;;;;;;;;;;4900232;28;20583;-55
2022/06/22 07:05:08;;;;;;;11.70;10.60;;;;;;;;;;4944655;28;20525;-55
2022/06/22 07:07:49;;;;;;;10.03;9.13;;;;;;;;;;4930720;28;20972;-54
2022/06/22 07:10:18;;;;;;;11.17;10.23;;;;;;;;;;4933891;28;20451;-52
2022/06/22 07:12:52;;;;;;;10.43;9.60;;;;;;;;;;4928643;28;20446;-54
2022/06/22 07:15:20;;;;;;;11.70;9.53;;;;;;;;;;4943403;28;20856;-54
2022/06/22 07:17:47;;;;;;;10.60;9.60;;;;;;;;;;4941576;28;20442;-54
2022/06/22 07:20:35;;;;;;;10.23;9.33;;;;;;;;;;4938601;28;20439;-54
2022/06/22 07:23:24;;;;;;;12.50;11.20;;;;;;;;;;4940707;28;20462;-55
2022/06/22 07:25:56;;;;;;;14.07;12.00;;;;;;;;;;4935861;28;22699;-54
2022/06/22 07:28:36;;;;;;;10.73;9.37;;;;;;;;;;4931670;28;20905;-53
2022/06/22 07:31:15;;;;;;;12.73;9.60;;;;;;;;;;4916755;28;20455;-54
2022/06/22 07:33:44;;;;;;;10.80;9.80;;;;;;;;;;4949080;28;20450;-54
2022/06/22 07:36:11;;;;;;;12.07;10.47;;;;;;;;;;4896877;28;21273;-55
2022/06/22 07:38:41;;;;;;;15.27;10.23;;;;;;;;;;4961752;28;20470;-55
2022/06/22 07:41:20;;;;;;;11.57;10.37;;;;;;;;;;4927663;28;20509;-54
2022/06/22 07:44:05;;;;;;;12.50;11.20;;;;;;;;;;4947220;28;20438;-55
2022/06/22 07:46:33;;;;;;;11.87;10.67;;;;;;;;;;4940979;28;20813;-55
2022/06/22 07:49:08;;;;;;;12.57;11.40;;;;;;;;;;4948454;28;20495;-55
2022/06/22 07:51:34;;;;;;;12.53;11.33;;;;;;;;;;4938836;28;20443;-54
2022/06/22 07:54:10;;;;;;;12.57;11.30;;;;;;;;;;4948286;28;20501;-54
2022/06/22 07:56:46;;;;;;;12.77;11.60;;;;;;;;;;4926365;28;20477;-55
2022/06/22 07:59:15;;;;;;;11.67;10.50;;;;;;;;;;4946209;28;20434;-55
2022/06/22 08:01:42;;;;;;;14.77;11.40;;;;;;;;;;4922641;28;20449;-54
2022/06/22 08:04:10;;;;;;;10.83;9.83;;;;;;;;;;4947431;28;20454;-54
2022/06/22 08:06:37;;;;;;;13.50;9.20;;;;;;;;;;4944941;28;20562;-54
2022/06/22 08:09:08;;;;;;;14.03;10.23;;;;;;;;;;4946296;28;20454;-55
2022/06/22 08:11:37;;;;;;;11.57;10.30;;;;;;;;;;4902603;28;20884;-55
2022/06/22 08:14:24;;;;;;;15.40;10.40;;;;;;;;;;4948018;28;20504;-55
2022/06/22 08:16:52;;;;;;;12.80;10.93;;;;;;;;;;4933013;28;20482;-55
2022/06/22 08:19:19;;;;;;;12.23;8.97;;;;;;;;;;4942122;28;20458;-55
2022/06/22 08:21:50;;;;;;;12.03;10.70;;;;;;;;;;4936385;28;20581;-55
2022/06/22 08:24:16;;;;;;;10.87;9.80;;;;;;;;;;4949109;28;20522;-53
2022/06/22 08:26:49;;;;;;;10.27;9.27;;;;;;;;;;4922199;28;20525;-55
2022/06/22 08:29:18;;;;;;;13.87;9.77;;;;;;;;;;4942983;28;20446;-55
2022/06/22 08:31:52;;;;;;;10.43;9.33;;;;;;;;;;4923442;28;21069;-54
2022/06/22 08:34:21;;;;;;;10.60;9.50;;;;;;;;;;4947064;28;20433;-55
2022/06/22 08:36:54;;;;;;;15.03;9.53;;;;;;;;;;4942602;28;20743;-54
2022/06/22 08:39:20;;;;;;;10.00;8.23;;;;;;;;;;4946203;28;20454;-53
2022/06/22 08:42:18;;;;;;;11.23;9.87;;;;;;;;;;4938116;28;20430;-55
2022/06/22 08:45:08;;;;;;;10.17;9.20;;;;;;;;;;4944672;28;20953;-54
2022/06/22 08:47:48;;;;;;;11.37;10.27;;;;;;;;;;4938368;28;20471;-54
2022/06/22 08:50:20;;;;;;;12.53;9.70;;;;;;;;;;4945356;28;20453;-54
2022/06/22 08:52:46;;;;;;;16.77;9.63;;;;;;;;;;4920307;28;20570;-54
2022/06/22 08:55:25;;;;;;;9.90;8.87;;;;;;;;;;4946205;28;20519;-54
2022/06/22 08:58:00;;;;;;;11.50;10.40;;;;;;;;;;4922083;28;20593;-55
2022/06/22 09:00:26;;;;;;;10.83;9.80;;;;;;;;;;4948787;28;20432;-55
2022/06/22 09:02:52;;;;;;;10.40;9.33;;;;;;;;;;4942023;28;20537;-55
2022/06/22 09:05:26;;;;;;;10.53;9.63;;;;;;;;;;4947716;28;20505;-55
2022/06/22 09:08:01;;;;;;;11.13;8.60;;;;;;;;;;4927257;29;20790;-55
2022/06/22 09:10:46;;;;;;;9.70;8.70;;;;;;;;;;4947145;28;20470;-54
2022/06/22 09:13:18;;;;;;;11.47;9.20;;;;;;;;;;4896324;28;20455;-54
2022/06/22 09:16:03;;;;;;;10.43;9.40;;;;;;;;;;4945260;28;20573;-55
2022/06/22 09:18:33;;;;;;;11.00;9.50;;;;;;;;;;4934352;28;20541;-53
2022/06/22 09:21:06;;;;;;;10.13;9.20;;;;;;;;;;4944999;28;20851;-55
2022/06/22 09:23:56;;;;;;;11.53;8.50;;;;;;;;;;4944518;28;20442;-54
2022/06/22 09:26:51;;;;;;;11.30;9.53;;;;;;;;;;4945599;28;20454;-54
2022/06/22 09:29:17;;;;;;;10.47;9.43;;;;;;;;;;4957841;28;20582;-53
2022/06/22 09:31:58;;;;;;;10.20;9.30;;;;;;;;;;4944099;28;20565;-53
2022/06/22 09:34:31;;;;;;;9.20;8.20;;;;;;;;;;4926224;28;20310;-54
2022/06/22 09:37:16;;;;;;;11.00;10.00;;;;;;;;;;4944008;28;21064;-54
2022/06/22 09:40:01;;;;;;;9.83;9.00;;;;;;;;;;4938892;28;20541;-55
2022/06/22 09:42:29;;;;;;;10.10;9.20;;;;;;;;;;4940680;28;20446;-53
2022/06/22 09:45:08;;;;;;;12.13;9.87;;;;;;;;;;4947768;28;20598;-54
2022/06/22 09:47:36;;;;;;;15.63;9.70;;;;;;;;;;4898317;28;20444;-55
2022/06/22 09:50:09;;;;;;;12.20;11.00;;;;;;;;;;4932482;29;20542;-55
2022/06/22 09:52:58;;;;;;;10.97;9.93;;;;;;;;;;4921369;28;20447;-54
2022/06/22 09:58:28;;;;;;;11.23;9.33;;;;;;;;;;4942096;28;20475;-55
2022/06/22 10:01:04;;;;;;;10.70;9.30;;;;;;;;;;4943624;28;20435;-55
2022/06/22 10:03:48;;;;;;;12.80;9.70;;;;;;;;;;4923418;28;20445;-53
2022/06/22 10:06:23;;;;;;;10.87;9.73;;;;;;;;;;4945989;28;20449;-55
2022/06/22 10:09:05;;;;;;;18.20;9.83;;;;;;;;;;4925058;28;20457;-54
2022/06/22 10:11:35;;;;;;;10.27;9.23;;;;;;;;;;4945079;28;20478;-54
2022/06/22 10:14:06;;;;;;;11.73;9.93;;;;;;;;;;4944554;28;20437;-54
2022/06/22 10:16:38;;;;;;;10.77;9.60;;;;;;;;;;4943044;28;20497;-54
2022/06/22 10:19:10;;;;;;;13.30;10.37;;;;;;;;;;4897836;28;20438;-53
2022/06/22 10:21:42;;;;;;;9.47;8.57;;;;;;;;;;4943411;28;20436;-56
2022/06/22 10:24:15;;;;;;;13.00;9.50;;;;;;;;;;4919997;28;20533;-54
2022/06/22 10:26:41;;;;;;;9.87;8.87;;;;;;;;;;4946720;28;21077;-55
2022/06/22 10:29:18;;;;;;;10.87;9.73;;;;;;;;;;4939447;28;20431;-54
2022/06/22 10:32:22;;;;;;;13.23;11.93;;;;;;;;;;4942519;28;20278;-54
2022/06/22 10:34:54;;;;;;;10.53;9.40;;;;;;;;;;4937426;28;20420;-54
2022/06/22 10:37:44;;;;;;;16.53;9.10;;;;;;;;;;4939090;28;20451;-55
2022/06/22 10:46:02;;;;;;;12.83;11.73;;;;;;;;;;4945783;28;20438;-54
2022/06/22 10:48:34;;;;;;;15.20;11.70;;;;;;;;;;4934007;28;20549;-54
2022/06/22 10:51:00;;;;;;;16.37;12.90;;;;;;;;;;4947303;28;20531;-54
2022/06/22 10:53:45;;;;;;;15.63;13.80;;;;;;;;;;4898720;28;20581;-53
2022/06/22 10:56:30;;;;;;;12.77;11.57;;;;;;;;;;4943557;28;20475;-53
2022/06/22 10:59:03;;;;;;;11.30;10.03;;;;;;;;;;4941216;28;20447;-53
2022/06/22 11:01:52;;;;;;;12.37;11.27;;;;;;;;;;4945017;28;20467;-56
2022/06/22 11:04:21;;;;;;;11.90;10.00;;;;;;;;;;4932103;28;20963;-54
2022/06/22 11:06:56;;;;;;;10.73;9.77;;;;;;;;;;4920192;28;20474;-54
2022/06/22 11:09:40;;;;;;;10.70;9.47;;;;;;;;;;4940265;28;20458;-55
2022/06/22 11:12:27;;;;;;;11.27;9.10;;;;;;;;;;4941279;28;20450;-53
2022/06/22 11:14:56;;;;;;;10.00;9.03;;;;;;;;;;4934865;28;20441;-54
2022/06/22 11:17:46;;;;;;;8.90;8.10;;;;;;;;;;4926616;28;20586;-55
2022/06/22 11:20:32;;;;;;;10.73;9.20;;;;;;;;;;4925678;28;20767;-55
2022/06/22 11:23:19;;;;;;;11.50;8.43;;;;;;;;;;4942931;28;20501;-53
2022/06/22 11:31:31;;;;;;;9.33;8.43;;;;;;;;;;4920751;28;20748;-56
2022/06/22 11:34:01;;;;;;;10.40;9.40;;;;;;;;;;4945467;28;20434;-56
2022/06/22 11:36:30;;;;;;;9.80;8.80;;;;;;;;;;4920184;28;20484;-55
2022/06/22 11:39:14;;;;;;;9.13;8.23;;;;;;;;;;4947063;28;20418;-56
2022/06/22 11:41:46;;;;;;;9.73;8.30;;;;;;;;;;4940396;28;20439;-55
2022/06/22 11:44:16;;;;;;;9.73;8.90;;;;;;;;;;4943249;28;20458;-54
2022/06/22 11:46:45;;;;;;;9.40;8.50;;;;;;;;;;4942326;28;20890;-54
2022/06/22 11:49:30;;;;;;;11.10;10.00;;;;;;;;;;4946486;28;20423;-55
2022/06/22 11:52:16;;;;;;;10.23;9.10;;;;;;;;;;4916795;28;20975;-54
2022/06/22 11:55:00;;;;;;;9.50;8.40;;;;;;;;;;4945068;28;20446;-56
2022/06/22 11:57:39;;;;;;;11.63;9.40;;;;;;;;;;4922126;28;20489;-54
2022/06/22 12:00:24;;;;;;;10.03;8.90;;;;;;;;;;4937658;28;20442;-55
2022/06/22 12:03:06;;;;;;;11.67;9.20;;;;;;;;;;4919738;28;20513;-54
2022/06/22 12:05:50;;;;;;;11.27;10.10;;;;;;;;;;4943079;28;20799;-54
2022/06/22 12:08:17;;;;;;;10.50;9.60;;;;;;;;;;4929865;28;20446;-54
2022/06/22 12:11:06;;;;;;;11.60;9.33;;;;;;;;;;4936127;28;20590;-56
2022/06/22 12:15:04;;;;;;;10.27;9.27;;;;;;;;;;4922541;28;20545;-54
2022/06/22 12:16:50;;;;;;;9.70;8.50;;;;;;;;;;4942026;28;21276;-55
2022/06/22 12:19:21;;;;;;;11.60;10.03;;;;;;;;;;4925955;28;20808;-55
2022/06/22 12:22:26;;;;;;;10.70;9.60;;;;;;;;;;4941394;28;20442;-60
2022/06/22 12:25:15;;;;;;;10.73;9.40;;;;;;;;;;4935671;28;20434;-54
2022/06/22 12:27:56;;;;;;;11.60;9.53;;;;;;;;;;4914857;28;20458;-54
2022/06/22 12:30:22;;;;;;;11.30;9.17;;;;;;;;;;4940539;28;20453;-55
2022/06/22 12:33:14;;;;;;;12.53;8.40;;;;;;;;;;4958217;28;21028;-54
2022/06/22 12:35:47;;;;;;;13.90;10.70;;;;;;;;;;4939273;28;20805;-54
2022/06/22 12:38:34;;;;;;;12.17;10.27;;;;;;;;;;4931555;28;20820;-52
2022/06/22 12:41:04;;;;;;;15.43;9.80;;;;;;;;;;4945796;28;20442;-53
2022/06/22 12:43:43;;;;;;;14.30;9.20;;;;;;;;;;4928470;28;20647;-52
2022/06/22 12:46:50;;;;;;;13.37;10.07;;;;;;;;;;4948095;28;20473;-54
2022/06/22 12:49:31;;;;;;;10.93;9.93;;;;;;;;;;4937772;28;20434;-53
2022/06/22 12:52:03;;;;;;;13.30;9.13;;;;;;;;;;4948333;28;20469;-54
2022/06/22 12:54:37;;;;;;;7.73;5.70;;;;;;;;;;4914622;28;20439;-53
2022/06/22 12:57:06;;;;;;;11.60;6.90;;;;;;;;;;4949528;28;20483;-54
2022/06/22 12:59:46;;;;;;;9.63;6.30;;;;;;;;;;4896677;28;20451;-55
2022/06/22 13:02:13;;;;;;;11.83;6.20;;;;;;;;;;4942271;28;20431;-54
2022/06/22 13:04:41;;;;;;;13.43;5.43;;;;;;;;;;4944198;28;20458;-56
2022/06/22 13:07:13;;;;;;;10.00;7.17;;;;;;;;;;4948871;28;20435;-54
2022/06/22 13:09:41;;;;;;;15.97;6.73;;;;;;;;;;4911336;28;21023;-54
2022/06/22 13:12:27;;;;;;;15.70;6.30;;;;;;;;;;4940300;28;20438;-54
2022/06/22 13:15:14;;;;;;;13.83;6.53;;;;;;;;;;4902066;28;20444;-55
2022/06/22 13:17:51;;;;;;;12.90;6.17;;;;;;;;;;4946398;28;20458;-54
2022/06/22 13:20:51;;;;;;;9.93;6.00;;;;;;;;;;4937416;28;21028;-54
2022/06/22 13:23:20;;;;;;;12.27;5.83;;;;;;;;;;4915924;28;20578;-54
2022/06/22 13:25:52;;;;;;;11.00;6.13;;;;;;;;;;4942719;28;20469;-54
2022/06/22 13:28:28;;;;;;;7.93;5.63;;;;;;;;;;4940576;28;20656;-53
2022/06/22 13:30:58;;;;;;;8.20;5.73;;;;;;;;;;4944586;28;20462;-54
2022/06/22 13:33:42;;;;;;;9.80;6.60;;;;;;;;;;4917685;28;21966;-54
2022/06/22 13:36:14;;;;;;;14.00;6.47;;;;;;;;;;4943639;28;20481;-54
2022/06/22 13:38:58;;;;;;;11.00;6.50;;;;;;;;;;4922445;28;22480;-55
2022/06/22 13:41:40;;;;;;;8.73;5.87;;;;;;;;;;4943015;28;20537;-55
2022/06/22 13:44:16;;;;;;;9.17;6.30;;;;;;;;;;4904647;28;20446;-55
2022/06/22 13:47:01;;;;;;;11.20;6.17;;;;;;;;;;4943744;28;20438;-53
2022/06/22 13:49:33;;;;;;;8.13;5.57;;;;;;;;;;4930696;28;20451;-55
2022/06/22 13:52:12;;;;;;;6.50;5.77;;;;;;;;;;4939925;28;20439;-54
2022/06/22 13:54:54;;;;;;;5.93;4.67;;;;;;;;;;4912559;28;20450;-54
2022/06/22 13:57:45;;;;;;;11.30;5.03;;;;;;;;;;4933842;28;20549;-59
2022/06/22 14:00:21;;;;;;;9.60;5.60;;;;;;;;;;4917129;28;20473;-54
2022/06/22 14:02:53;;;;;;;12.60;5.93;;;;;;;;;;4944721;28;20491;-56
2022/06/22 14:05:22;;;;;;;8.97;6.23;;;;;;;;;;4898436;28;20436;-53
2022/06/22 14:07:57;;;;;;;12.53;6.10;;;;;;;;;;4935692;28;20444;-54
2022/06/22 14:10:29;;;;;;;10.20;5.40;;;;;;;;;;4924988;28;20443;-54
2022/06/22 14:13:14;;;;;;;11.90;5.30;;;;;;;;;;4928902;29;20454;-54
2022/06/22 14:15:43;;;;;;;11.10;6.37;;;;;;;;;;4938986;28;20513;-55
2022/06/22 14:18:12;;;;;;;8.17;5.20;;;;;;;;;;4959597;28;21272;-53
2022/06/22 14:21:03;;;;;;;12.60;5.00;;;;;;;;;;4924931;28;20942;-54
2022/06/22 14:23:29;;;;;;;14.47;4.63;;;;;;;;;;4929756;28;20469;-54
2022/06/22 14:26:13;;;;;;;11.30;4.80;;;;;;;;;;4911919;28;20502;-54
2022/06/22 14:28:42;;;;;;;9.60;4.70;;;;;;;;;;4931363;29;20453;-55
2022/06/22 14:31:16;;;;;;;10.43;5.73;;;;;;;;;;4937364;28;20454;-53
2022/06/22 14:33:47;;;;;;;9.40;4.93;;;;;;;;;;4942029;28;20867;-54
2022/06/22 14:36:24;;;;;;;8.77;3.50;;;;;;;;;;4936467;28;20984;-54
2022/06/22 14:38:52;;;;;;;9.57;5.33;;;;;;;;;;4944344;28;20497;-54
2022/06/22 14:41:23;;;;;;;9.57;4.53;;;;;;;;;;4890170;28;20530;-55
2022/06/22 14:43:52;;;;;;;9.10;3.90;;;;;;;;;;4944756;28;20458;-56
2022/06/22 14:46:18;;;;;;;8.60;4.67;;;;;;;;;;4934591;28;20926;-53
2022/06/22 14:48:50;;;;;;;8.63;4.30;;;;;;;;;;4914651;28;20451;-55
2022/06/22 14:51:17;;;;;;;10.57;5.30;;;;;;;;;;4944382;28;20448;-53
2022/06/22 14:54:01;;;;;;;17.17;6.20;;;;;;;;;;4924748;28;20485;-53
2022/06/22 14:56:45;;;;;;;8.70;4.93;;;;;;;;;;4928780;28;20486;-54
2022/06/22 14:59:30;;;;;;;10.03;3.87;;;;;;;;;;4921607;28;20454;-54
2022/06/22 15:02:21;;;;;;;7.30;4.10;;;;;;;;;;4945532;28;20717;-55
2022/06/22 15:05:00;;;;;;;10.70;5.20;;;;;;;;;;4930222;28;22782;-54
2022/06/22 15:07:43;;;;;;;11.47;5.17;;;;;;;;;;4945005;28;20585;-55
2022/06/22 15:10:49;;;;;;;12.53;5.17;;;;;;;;;;4938461;28;20817;-59
2022/06/22 15:13:33;;;;;;;16.00;5.43;;;;;;;;;;4921670;28;20470;-53
2022/06/22 15:16:19;;;;;;;11.33;4.90;;;;;;;;;;4944208;28;20823;-53
2022/06/22 15:18:56;;;;;;;12.70;4.70;;;;;;;;;;4947408;28;20447;-54
2022/06/22 15:21:28;;;;;;;14.57;4.00;;;;;;;;;;4912212;28;20553;-54
2022/06/22 15:23:56;;;;;;;14.03;4.97;;;;;;;;;;4941687;28;20450;-54
2022/06/22 15:26:29;;;;;;;12.40;4.70;;;;;;;;;;4921408;28;20953;-54
2022/06/22 15:28:54;;;;;;;9.53;3.90;;;;;;;;;;4944874;28;20563;-56
2022/06/22 15:31:39;;;;;;;13.53;5.37;;;;;;;;;;4914854;28;20997;-55
2022/06/22 15:34:10;;;;;;;13.10;4.50;;;;;;;;;;4943511;28;20454;-55
2022/06/22 15:36:38;;;;;;;11.23;3.80;;;;;;;;;;4954967;28;20501;-54
2022/06/22 15:39:11;;;;;;;6.60;3.70;;;;;;;;;;4947809;28;21333;-53
2022/06/22 15:42:00;;;;;;;11.73;4.00;;;;;;;;;;4945041;28;20431;-54
2022/06/22 15:44:29;;;;;;;8.80;3.87;;;;;;;;;;4944773;28;20453;-55
2022/06/22 15:47:07;;;;;;;9.23;4.57;;;;;;;;;;4896303;28;20439;-55
2022/06/22 15:49:45;;;;;;;10.77;3.90;;;;;;;;;;4941365;28;20873;-53